Catàleg de serveis del Meteocat
Campanya meteocatpedra

Dades de l'estació automàtica Maials

?
?
Resum diari 21:30 TU
Dades diàries de l'estació meteorològica
Temperatura mitjana 8.7 °C
Temperatura màxima 13.7 °C 14:59 TU
Temperatura mínima 3.0 °C 21:35 TU
Humitat relativa mitjana 82%
Precipitació acumulada 7.6 mm
Ratxa màxima del vent (2 m) 25.2 km/h - 316º 15:01 TU
Irradiació solar global 5.9 MJ/m2

El tram horari està expressat en Temps Universal (TU). Cal sumar una hora en horari d'hivern i dues en horari d'estiu per passar a l'hora oficial.

Maials

Metadades estació meteorol´gica
Municipi Maials
Comarca Segrià
Altitud 350 m
Data alta 20.12.2000
Estat actual Operativa
Dades de període
Període
TU
TM
°C
TX
°C
TN
°C
HRM
%
PPT
mm
VVM (2 m)
km/h
DVM (2 m)
graus
VVX (2 m)
km/h
RS
W/m2
00:00 - 00:30 8.7 8.8 8.6 72 0.0 4.0 264 10.8 0
00:30 - 01:00 8.5 8.6 8.1 74 0.0 2.9 257 9.4 0
01:00 - 01:30 8.0 8.2 7.5 79 0.0 1.4 117 5.0 0
01:30 - 02:00 7.6 7.8 7.4 82 0.0 1.1 147 5.8 0
02:00 - 02:30 7.8 8.4 7.5 82 0.0 1.1 23 6.1 0
02:30 - 03:00 8.6 9.0 8.2 77 0.0 1.4 360 5.4 0
03:00 - 03:30 8.2 8.3 8.0 82 0.0 0.4 190 2.9 0
03:30 - 04:00 8.5 8.9 8.0 79 0.0 1.4 205 6.1 0
04:00 - 04:30 8.4 8.9 8.0 79 0.0 1.1 146 6.1 0
04:30 - 05:00 7.8 8.0 7.4 84 0.0 0.7 142 6.1 0
05:00 - 05:30 7.2 7.4 7.0 92 0.3 0.0 124 1.1 0
05:30 - 06:00 6.9 7.0 6.8 96 0.3 0.0 149 1.8 0
06:00 - 06:30 6.8 6.8 6.8 97 0.4 0.4 152 2.2 5
06:30 - 07:00 6.9 6.9 6.8 98 0.9 0.0 147 2.2 6
07:00 - 07:30 6.9 7.0 6.8 98 0.9 0.0 0 0.0 9
07:30 - 08:00 7.1 7.2 7.0 98 0.9 0.0 311 1.4 21
08:00 - 08:30 7.3 7.4 6.9 98 1.2 2.9 327 7.2 28
08:30 - 09:00 6.5 6.8 6.4 99 1.4 2.9 323 8.6 16
09:00 - 09:30 6.5 6.6 6.4 99 0.9 2.2 327 5.0 36
09:30 - 10:00 7.1 7.6 6.6 99 0.2 2.2 280 6.1 104
10:00 - 10:30 7.7 8.0 7.6 99 0.2 3.2 269 8.6 103
10:30 - 11:00 8.1 8.6 7.9 99 0.0 3.6 280 11.2 149
11:00 - 11:30 8.7 9.2 8.5 97 0.0 4.3 288 10.1 230
11:30 - 12:00 9.1 9.2 9.0 94 0.0 4.3 278 10.4 164
12:00 - 12:30 9.4 10.1 9.1 93 0.0 3.2 275 8.6 213
12:30 - 13:00 10.1 11.2 9.8 89 0.0 3.6 278 10.8 299
13:00 - 13:30 11.3 11.8 10.9 84 0.0 5.0 255 13.7 471
13:30 - 14:00 11.9 12.5 11.5 80 0.0 3.6 269 9.4 411
14:00 - 14:30 12.6 12.8 12.4 78 0.0 5.0 245 10.8 354
14:30 - 15:00 13.3 13.7 12.8 74 0.0 6.1 258 19.4 283
15:00 - 15:30 13.4 13.7 13.1 56 0.0 8.3 294 25.2 200
15:30 - 16:00 12.9 13.1 12.6 56 0.0 6.8 285 19.8 120
16:00 - 16:30 12.1 12.6 11.4 57 0.0 5.0 289 19.4 39
16:30 - 17:00 10.9 11.3 10.7 63 0.0 4.3 283 14.4 6
17:00 - 17:30 10.3 10.8 9.6 65 0.0 3.6 289 12.2 2
17:30 - 18:00 10.3 10.6 9.5 64 0.0 5.0 269 16.2 2
18:00 - 18:30 9.9 10.5 9.1 65 0.0 4.3 266 16.6 2
18:30 - 19:00 9.2 9.4 8.9 67 0.0 2.5 276 7.6 2
19:00 - 19:30 8.9 9.2 8.5 66 0.0 2.2 273 7.6 2
19:30 - 20:00 8.6 8.8 8.2 68 0.0 3.2 262 6.8 3
20:00 - 20:30 7.9 8.2 7.5 73 0.0 3.6 245 7.9 3
20:30 - 21:00 6.4 7.5 5.2 82 0.0 0.7 230 4.0 2
21:00 - 21:30 4.2 5.1 3.3 93 0.0 0.0 82 0.7 2
21:30 - 22:00 4.2 6.1 3.0 95 0.0 1.1 210 4.7 3

Les dades en taronja només han passat un control de qualitat automàtic. Resta pendent la seva validació definitiva.